Time;durP1;ratioP1;P1;durP2;ratioP2;P2;SDS_P1;SDS_P2;PMS_P1;PMS_P2;Temp;Humidity;BMP_temperature;BMP_pressure;BME280_temperature;BME280_humidity;BME280_pressure;Samples;Min_cycle;Max_cycle;Signal;HPM_P1;HPM_P2
2021/06/07 00:01:31;;;;;;;25.37;21.60;;;18.10;99.90;;;;;;5093112;28;20556;-89
2021/06/07 00:03:58;;;;;;;26.03;23.37;;;18.10;99.90;;;;;;5092682;28;20465;-88
2021/06/07 00:06:24;;;;;;;25.50;22.80;;;18.10;99.90;;;;;;5103343;28;20668;-90
2021/06/07 00:08:51;;;;;;;25.30;22.80;;;18.10;99.90;;;;;;5109374;28;20518;-88
2021/06/07 00:11:21;;;;;;;27.77;24.23;;;18.10;99.90;;;;;;5113421;28;20430;-88
2021/06/07 00:13:49;;;;;;;26.23;23.40;;;18.10;99.90;;;;;;5112104;28;20485;-88
2021/06/07 00:16:15;;;;;;;26.40;23.53;;;18.10;99.90;;;;;;5099869;28;20813;-89
2021/06/07 00:18:42;;;;;;;30.20;24.50;;;18.00;99.90;;;;;;5102678;28;20443;-88
2021/06/07 00:21:11;;;;;;;26.40;23.60;;;18.00;99.90;;;;;;5097795;28;20444;-88
2021/06/07 00:23:41;;;;;;;28.13;23.47;;;18.10;99.90;;;;;;5096028;28;20461;-89
2021/06/07 00:26:12;;;;;;;29.23;23.20;;;18.00;99.90;;;;;;5096213;28;20427;-87
2021/06/07 00:28:38;;;;;;;26.00;23.30;;;18.00;99.90;;;;;;5096722;28;20431;-90
2021/06/07 00:31:06;;;;;;;27.50;24.70;;;18.10;99.90;;;;;;5096338;28;20826;-88
2021/06/07 00:33:33;;;;;;;27.73;22.77;;;18.00;99.90;;;;;;5097475;28;20474;-87
2021/06/07 00:36:01;;;;;;;28.23;25.30;;;18.00;99.90;;;;;;5108377;28;20437;-87
2021/06/07 00:38:27;;;;;;;27.77;24.77;;;18.00;99.90;;;;;;5103291;28;20490;-90
2021/06/07 00:40:56;;;;;;;27.33;23.80;;;18.00;99.90;;;;;;5110312;28;20452;-87
2021/06/07 00:43:23;;;;;;;28.30;24.93;;;18.00;99.90;;;;;;5102196;28;20454;-88
2021/06/07 00:45:49;;;;;;;28.67;25.63;;;18.00;99.90;;;;;;5102258;28;20462;-88
2021/06/07 00:48:17;;;;;;;31.50;25.00;;;18.00;99.90;;;;;;5112003;28;20462;-88
2021/06/07 00:50:46;;;;;;;28.60;25.57;;;18.00;99.90;;;;;;5105183;28;20442;-87
2021/06/07 00:53:14;;;;;;;28.90;24.33;;;18.00;99.90;;;;;;5098924;28;20492;-88
2021/06/07 00:55:42;;;;;;;27.00;24.10;;;18.00;99.90;;;;;;5100087;28;20861;-89
2021/06/07 00:58:10;;;;;;;27.63;24.97;;;17.90;99.90;;;;;;5096941;28;20479;-89
2021/06/07 01:00:39;;;;;;;27.77;24.80;;;18.00;99.90;;;;;;5096420;28;20451;-88
2021/06/07 01:03:07;;;;;;;31.73;26.20;;;18.00;99.90;;;;;;5096487;28;20446;-88
2021/06/07 01:05:34;;;;;;;28.03;24.23;;;17.90;99.90;;;;;;5095943;28;20438;-88
2021/06/07 01:08:00;;;;;;;27.90;23.77;;;17.90;99.90;;;;;;5095978;28;20470;-88
2021/06/07 01:10:27;;;;;;;28.50;25.00;;;18.00;99.90;;;;;;5099974;28;20442;-88
2021/06/07 01:12:53;;;;;;;25.77;23.13;;;17.90;99.90;;;;;;5117321;28;20419;-88
2021/06/07 01:15:20;;;;;;;27.03;24.10;;;17.90;99.90;;;;;;5108679;28;20481;-88
2021/06/07 01:17:49;;;;;;;28.37;23.70;;;17.90;99.90;;;;;;5112833;28;20443;-87
2021/06/07 01:20:18;;;;;;;29.23;23.60;;;17.90;99.90;;;;;;5105721;28;20438;-88
2021/06/07 01:22:47;;;;;;;28.50;25.40;;;17.90;99.90;;;;;;5096416;28;20450;-89
2021/06/07 01:25:18;;;;;;;31.00;24.43;;;17.90;99.90;;;;;;5096247;28;20431;-88
2021/06/07 01:27:44;;;;;;;25.83;23.03;;;17.90;99.90;;;;;;5097761;28;20470;-89
2021/06/07 01:30:14;;;;;;;30.63;23.93;;;17.80;99.90;;;;;;5114654;28;20431;-88
2021/06/07 01:32:41;;;;;;;26.20;23.40;;;17.90;99.90;;;;;;5100138;28;20519;-88
2021/06/07 01:35:11;;;;;;;27.27;23.33;;;17.90;99.90;;;;;;5094980;28;20467;-89
2021/06/07 01:37:39;;;;;;;30.33;23.87;;;17.90;99.90;;;;;;5094499;28;20498;-89
2021/06/07 01:40:10;;;;;;;30.13;24.10;;;17.90;99.90;;;;;;5094458;28;20482;-89
2021/06/07 01:42:37;;;;;;;33.23;26.07;;;17.90;99.90;;;;;;5094197;28;20483;-89
2021/06/07 01:45:06;;;;;;;29.20;24.97;;;17.90;99.90;;;;;;5094593;28;20452;-89
2021/06/07 01:47:33;;;;;;;30.80;25.20;;;17.80;99.90;;;;;;5093499;28;20476;-88
2021/06/07 01:50:00;;;;;;;32.30;25.20;;;17.80;99.90;;;;;;5104588;28;20523;-88
2021/06/07 01:52:28;;;;;;;33.83;25.30;;;17.80;99.90;;;;;;5117457;28;20451;-89
2021/06/07 01:54:54;;;;;;;31.37;25.30;;;17.80;99.90;;;;;;5099269;28;20480;-89
2021/06/07 01:57:22;;;;;;;35.37;26.77;;;17.80;99.90;;;;;;5095119;28;20497;-89
2021/06/07 01:59:49;;;;;;;31.03;25.30;;;17.80;99.90;;;;;;5093897;28;20534;-88
2021/06/07 02:02:16;;;;;;;36.70;28.47;;;17.80;99.90;;;;;;5105192;28;20854;-89
2021/06/07 02:04:42;;;;;;;31.60;26.50;;;17.80;99.90;;;;;;5094759;28;20538;-89
2021/06/07 02:07:10;;;;;;;35.10;27.00;;;17.80;99.90;;;;;;5093599;28;20474;-89
2021/06/07 02:09:40;;;;;;;32.63;26.00;;;17.80;99.90;;;;;;5093846;28;20454;-89
2021/06/07 02:12:07;;;;;;;35.90;28.73;;;17.80;99.90;;;;;;5093328;28;20829;-89
2021/06/07 02:14:36;;;;;;;36.67;27.43;;;17.80;99.90;;;;;;5094243;28;20482;-88
2021/06/07 02:17:04;;;;;;;36.53;26.80;;;17.70;99.90;;;;;;5116773;28;20478;-88
2021/06/07 02:19:31;;;;;;;27.57;23.83;;;17.70;99.90;;;;;;5118173;28;20443;-88
2021/06/07 02:21:57;;;;;;;34.53;27.63;;;17.70;99.90;;;;;;5113811;28;20477;-88
2021/06/07 02:24:25;;;;;;;34.13;24.67;;;17.70;99.90;;;;;;5100152;28;20456;-89
2021/06/07 02:26:51;;;;;;;38.80;27.50;;;17.70;99.90;;;;;;5117662;28;20514;-88
2021/06/07 02:29:18;;;;;;;40.17;27.77;;;17.70;99.90;;;;;;5116114;28;20454;-89
2021/06/07 02:31:45;;;;;;;33.23;25.90;;;17.70;99.90;;;;;;5095111;28;20508;-89
2021/06/07 02:34:13;;;;;;;35.87;25.73;;;17.70;99.90;;;;;;5093084;28;20487;-88
2021/06/07 02:36:42;;;;;;;35.27;26.00;;;17.70;99.90;;;;;;5098286;28;20480;-88
2021/06/07 02:39:10;;;;;;;36.27;26.67;;;17.70;99.90;;;;;;5102030;28;20442;-89
2021/06/07 02:41:39;;;;;;;34.43;27.30;;;17.70;99.90;;;;;;5098175;28;20446;-87
2021/06/07 02:44:07;;;;;;;43.07;30.00;;;17.70;99.90;;;;;;5095369;28;20471;-87
2021/06/07 02:46:33;;;;;;;36.70;27.20;;;17.70;99.90;;;;;;5102857;28;20448;-86
2021/06/07 02:49:01;;;;;;;34.00;26.83;;;17.70;99.90;;;;;;5114326;28;20457;-87
2021/06/07 02:51:28;;;;;;;35.17;26.60;;;17.70;99.90;;;;;;5105875;28;20462;-87
2021/06/07 02:53:54;;;;;;;34.80;27.73;;;17.70;99.90;;;;;;5101496;28;20547;-87
2021/06/07 02:56:21;;;;;;;39.13;29.00;;;17.70;99.90;;;;;;5110322;28;20448;-87
2021/06/07 02:58:47;;;;;;;35.87;26.27;;;17.70;99.90;;;;;;5104444;28;20462;-87
2021/06/07 03:01:14;;;;;;;36.10;29.50;;;17.70;99.90;;;;;;5108524;28;20505;-86
2021/06/07 03:03:41;;;;;;;35.17;26.63;;;17.70;99.90;;;;;;5094745;28;20443;-87
2021/06/07 03:06:10;;;;;;;39.40;28.37;;;17.70;99.90;;;;;;5095975;28;20461;-86
2021/06/07 03:08:36;;;;;;;40.50;29.50;;;17.70;99.90;;;;;;5093867;28;20995;-88
2021/06/07 03:11:06;;;;;;;33.97;27.07;;;17.70;99.90;;;;;;5093305;28;20560;-88
2021/06/07 03:13:33;;;;;;;40.97;28.83;;;17.70;99.90;;;;;;5092773;28;20532;-88
2021/06/07 03:16:01;;;;;;;40.13;28.10;;;17.70;99.90;;;;;;5092381;28;20458;-87
2021/06/07 03:18:28;;;;;;;37.83;27.93;;;17.70;99.90;;;;;;5092870;28;20463;-88
2021/06/07 03:20:56;;;;;;;38.10;28.00;;;17.70;99.90;;;;;;5092506;28;20460;-88
2021/06/07 03:23:26;;;;;;;38.13;28.13;;;17.70;99.90;;;;;;5093151;28;20455;-88
2021/06/07 03:25:53;;;;;;;35.33;27.77;;;17.70;99.90;;;;;;5099231;28;20451;-88
2021/06/07 03:28:21;;;;;;;38.93;28.37;;;17.70;99.90;;;;;;5107971;28;20458;-87
2021/06/07 03:30:50;;;;;;;33.83;25.17;;;17.60;99.90;;;;;;5112915;28;20467;-88
2021/06/07 03:33:18;;;;;;;37.30;27.60;;;17.60;99.90;;;;;;5098650;28;20471;-88
2021/06/07 03:35:46;;;;;;;39.73;28.00;;;17.60;99.90;;;;;;5099558;28;20510;-87
2021/06/07 03:38:14;;;;;;;38.63;28.53;;;17.60;99.90;;;;;;5113823;28;20459;-87
2021/06/07 03:40:45;;;;;;;36.60;28.03;;;17.60;99.90;;;;;;5112562;28;20451;-88
2021/06/07 03:43:11;;;;;;;34.00;25.30;;;17.60;99.90;;;;;;5115075;28;20435;-87
2021/06/07 03:45:39;;;;;;;40.77;29.47;;;17.60;99.90;;;;;;5111182;28;20447;-88
2021/06/07 03:48:07;;;;;;;37.30;28.57;;;17.60;99.90;;;;;;5103945;28;20472;-88
2021/06/07 03:50:36;;;;;;;31.43;26.27;;;17.60;99.90;;;;;;5109500;28;20455;-88
2021/06/07 03:53:04;;;;;;;34.33;28.07;;;17.60;99.90;;;;;;5100788;28;20465;-88
2021/06/07 03:55:30;;;;;;;36.23;28.67;;;17.60;99.90;;;;;;5099113;28;20439;-89
2021/06/07 03:57:59;;;;;;;35.23;26.67;;;17.60;99.90;;;;;;5102955;28;20481;-89
2021/06/07 04:00:27;;;;;;;36.03;27.63;;;17.60;99.90;;;;;;5120698;28;20422;-88
2021/06/07 04:02:54;;;;;;;36.07;27.50;;;17.60;99.90;;;;;;5117115;28;20443;-88
2021/06/07 04:05:20;;;;;;;36.03;29.13;;;17.60;99.90;;;;;;5101060;28;20935;-88
2021/06/07 04:07:48;;;;;;;38.70;29.10;;;17.60;99.90;;;;;;5097304;28;20487;-89
2021/06/07 04:10:18;;;;;;;37.43;30.77;;;17.60;99.90;;;;;;5103361;28;20522;-88
2021/06/07 04:12:47;;;;;;;37.43;27.90;;;17.70;99.90;;;;;;5096668;28;20583;-88
2021/06/07 04:15:17;;;;;;;36.57;28.43;;;17.70;99.90;;;;;;5097753;28;20502;-87
2021/06/07 04:17:45;;;;;;;36.30;27.20;;;17.70;99.90;;;;;;5099824;28;20482;-89
2021/06/07 04:20:14;;;;;;;38.57;30.27;;;17.70;99.90;;;;;;5098698;28;20454;-89
2021/06/07 04:22:41;;;;;;;41.93;30.50;;;17.70;99.90;;;;;;5098768;28;20451;-89
2021/06/07 04:25:10;;;;;;;38.03;28.63;;;17.60;99.90;;;;;;5097714;28;20469;-88
2021/06/07 04:27:38;;;;;;;45.30;31.47;;;17.60;99.90;;;;;;5106179;28;20542;-90
2021/06/07 04:40:10;;;;;;;39.80;28.00;;;17.70;99.90;;;;;;5086987;28;20991;-88
2021/06/07 04:46:35;;;;;;;42.40;31.37;;;17.70;99.90;;;;;;5036006;28;20427;-89
2021/06/07 04:49:25;;;;;;;41.20;29.67;;;17.70;99.90;;;;;;5061987;28;20454;-88
2021/06/07 04:52:34;;;;;;;42.13;30.90;;;17.70;99.90;;;;;;5110688;28;20465;-89
2021/06/07 05:02:03;;;;;;;37.80;29.87;;;17.50;99.90;;;;;;5117166;28;20877;-89
2021/06/07 05:04:41;;;;;;;49.60;32.03;;;17.50;99.90;;;;;;5054306;28;20858;-88
2021/06/07 05:07:32;;;;;;;42.73;29.23;;;17.50;99.90;;;;;;5055153;28;20484;-89
2021/06/07 05:10:10;;;;;;;41.20;31.00;;;17.50;99.90;;;;;;5117248;28;20539;-89
2021/06/07 05:15:58;;;;;;;42.57;30.63;;;17.50;99.90;;;;;;5043067;28;20474;-87
2021/06/07 05:22:25;;;;;;;39.63;29.23;;;17.60;99.90;;;;;;5001470;28;20480;-90
2021/06/07 05:25:53;;;;;;;42.77;31.80;;;17.70;99.90;;;;;;5018070;28;20450;-87
2021/06/07 05:28:27;;;;;;;38.63;27.30;;;17.70;99.90;;;;;;5043892;28;20473;-89
2021/06/07 05:31:27;;;;;;;37.33;28.93;;;17.70;99.90;;;;;;5084188;28;20760;-89
2021/06/07 05:41:11;;;;;;;35.20;25.90;;;17.80;99.90;;;;;;5033308;28;20420;-88
2021/06/07 06:01:10;;;;;;;36.50;26.20;;;17.90;99.90;;;;;;5033867;28;20539;-89
2021/06/07 06:08:23;;;;;;;33.33;25.67;;;17.90;99.90;;;;;;4988045;28;20943;-88
2021/06/07 06:15:05;;;;;;;39.43;27.63;;;18.00;99.90;;;;;;5089862;28;20498;-89
2021/06/07 06:22:00;;;;;;;;;;;;;;;;;;;;;
2021/06/07 06:27:52;;;;;;;33.53;25.80;;;18.00;99.90;;;;;;5111692;28;20530;-88
2021/06/07 06:34:34;;;;;;;36.17;25.90;;;18.10;99.90;;;;;;5099582;28;20472;-88
2021/06/07 06:37:22;;;;;;;33.23;25.57;;;18.10;99.90;;;;;;5096266;28;20467;-88
2021/06/07 06:46:49;;;;;;;36.80;25.67;;;18.10;99.90;;;;;;5094172;28;20492;-89
2021/06/07 06:49:17;;;;;;;32.73;24.20;;;18.10;99.90;;;;;;5101009;28;20806;-89
2021/06/07 06:51:43;;;;;;;32.53;22.77;;;18.10;99.90;;;;;;5100524;28;20434;-88
2021/06/07 06:54:11;;;;;;;33.40;24.70;;;18.00;99.90;;;;;;5102025;28;20487;-88
2021/06/07 06:56:37;;;;;;;30.50;22.60;;;18.10;99.90;;;;;;5102043;28;20978;-88
2021/06/07 06:59:04;;;;;;;31.47;22.83;;;18.10;99.90;;;;;;5111204;28;20454;-88
2021/06/07 07:01:30;;;;;;;30.30;24.23;;;18.10;99.90;;;;;;5108281;28;20438;-87
2021/06/07 07:03:56;;;;;;;37.20;25.53;;;18.00;99.90;;;;;;5112838;28;20762;-88
2021/06/07 07:06:24;;;;;;;29.67;25.20;;;18.00;99.90;;;;;;5102341;28;20445;-88
2021/06/07 07:08:50;;;;;;;29.30;22.73;;;17.90;99.90;;;;;;5101906;28;20451;-88
2021/06/07 07:11:18;;;;;;;33.27;24.10;;;17.90;99.90;;;;;;5100026;28;20844;-88
2021/06/07 07:13:44;;;;;;;31.17;23.53;;;17.90;99.90;;;;;;5095095;28;20481;-88
2021/06/07 07:16:10;;;;;;;34.80;25.90;;;17.90;99.90;;;;;;5098349;28;20442;-87
2021/06/07 07:18:37;;;;;;;37.20;25.07;;;17.90;99.90;;;;;;5105549;28;20871;-88
2021/06/07 07:21:03;;;;;;;35.10;25.63;;;17.90;99.90;;;;;;5104710;28;20435;-87
2021/06/07 07:23:30;;;;;;;37.20;25.83;;;17.90;99.90;;;;;;5118845;27;20418;-87
2021/06/07 07:25:57;;;;;;;32.77;24.20;;;17.90;99.90;;;;;;5104203;28;20488;-87
2021/06/07 07:28:24;;;;;;;31.53;24.07;;;18.00;99.90;;;;;;5097160;28;20458;-87
2021/06/07 07:30:50;;;;;;;26.90;21.17;;;18.00;99.90;;;;;;5096997;28;20449;-88
2021/06/07 07:33:16;;;;;;;27.20;20.53;;;18.10;99.90;;;;;;5110392;28;20456;-87
2021/06/07 07:35:43;;;;;;;25.37;20.40;;;18.10;99.90;;;;;;5117184;28;20493;-87
2021/06/07 07:38:09;;;;;;;25.00;19.80;;;18.20;99.90;;;;;;5120237;28;20476;-87
2021/06/07 07:40:38;;;;;;;24.60;17.83;;;18.40;99.90;;;;;;5102142;28;20450;-88
2021/06/07 07:43:05;;;;;;;22.40;18.00;;;18.50;99.90;;;;;;5097672;28;20515;-86
2021/06/07 07:45:34;;;;;;;16.80;14.90;;;18.70;99.90;;;;;;5097404;28;20928;-88
2021/06/07 07:48:02;;;;;;;18.17;15.77;;;18.70;99.90;;;;;;5101719;28;20898;-87
2021/06/07 07:50:30;;;;;;;17.30;15.47;;;18.80;99.90;;;;;;5098430;28;20513;-88
2021/06/07 07:52:58;;;;;;;19.57;15.40;;;18.80;99.90;;;;;;5098078;28;20451;-88
2021/06/07 07:55:28;;;;;;;16.30;14.60;;;18.80;99.90;;;;;;5097166;28;20479;-88
2021/06/07 07:57:55;;;;;;;14.63;12.40;;;18.80;99.90;;;;;;5100315;28;20483;-87
2021/06/07 08:00:24;;;;;;;15.30;13.70;;;18.80;99.90;;;;;;5110224;28;20460;-87
2021/06/07 08:02:55;;;;;;;15.47;12.57;;;18.90;99.90;;;;;;5099920;28;20454;-88
2021/06/07 08:05:22;;;;;;;14.90;11.10;;;19.00;99.90;;;;;;5102268;28;20503;-87
2021/06/07 08:07:49;;;;;;;14.50;12.07;;;19.10;99.90;;;;;;5097706;28;20543;-87
2021/06/07 08:10:15;;;;;;;14.43;11.00;;;19.10;99.90;;;;;;5099011;28;20829;-88
2021/06/07 08:12:42;;;;;;;12.50;11.27;;;19.20;99.90;;;;;;5097712;28;20912;-87
2021/06/07 08:15:10;;;;;;;14.40;12.00;;;19.30;99.90;;;;;;5097025;28;20622;-88
2021/06/07 08:17:37;;;;;;;15.13;12.83;;;19.30;99.90;;;;;;5103495;28;20477;-87
2021/06/07 08:20:06;;;;;;;15.27;12.80;;;19.30;99.90;;;;;;5109993;28;20443;-87
2021/06/07 08:22:33;;;;;;;14.67;13.17;;;19.30;99.90;;;;;;5106110;28;20536;-87
2021/06/07 08:25:00;;;;;;;14.70;13.20;;;19.30;99.90;;;;;;5106681;28;20439;-87
2021/06/07 08:27:27;;;;;;;16.90;14.50;;;19.20;99.90;;;;;;5103452;28;20465;-88
2021/06/07 08:29:53;;;;;;;17.00;14.03;;;19.30;99.90;;;;;;5107400;28;20443;-87
2021/06/07 08:32:20;;;;;;;16.70;14.23;;;19.30;99.90;;;;;;5103785;28;20447;-88
2021/06/07 08:34:47;;;;;;;16.10;13.60;;;19.40;99.90;;;;;;5106049;28;20498;-87
2021/06/07 08:37:15;;;;;;;16.10;14.40;;;19.40;99.90;;;;;;5113027;28;20477;-88
2021/06/07 08:39:42;;;;;;;20.00;16.87;;;19.50;99.90;;;;;;5116904;28;20451;-88
2021/06/07 08:42:10;;;;;;;19.67;17.10;;;19.60;99.90;;;;;;5098244;28;20819;-88
2021/06/07 08:44:37;;;;;;;21.13;16.77;;;19.60;99.90;;;;;;5095171;28;20479;-87
2021/06/07 08:47:04;;;;;;;18.40;16.20;;;19.60;99.90;;;;;;5095500;28;20463;-87
2021/06/07 08:49:30;;;;;;;18.30;15.97;;;19.60;99.90;;;;;;5096197;28;20447;-87
2021/06/07 08:51:57;;;;;;;19.60;17.27;;;19.50;99.90;;;;;;5096268;28;20878;-88
2021/06/07 08:54:25;;;;;;;18.33;16.53;;;19.60;99.90;;;;;;5097493;28;20476;-88
2021/06/07 08:56:52;;;;;;;19.40;17.40;;;19.60;99.90;;;;;;5097500;28;20474;-88
2021/06/07 08:59:19;;;;;;;19.80;16.90;;;19.70;99.90;;;;;;5096650;28;20509;-87
2021/06/07 09:01:45;;;;;;;25.67;17.20;;;19.80;99.90;;;;;;5099003;28;20827;-88
2021/06/07 09:04:15;;;;;;;21.03;18.60;;;19.90;99.90;;;;;;5099551;28;20523;-88
2021/06/07 09:06:44;;;;;;;22.40;18.83;;;20.10;99.90;;;;;;5110712;28;20494;-88
2021/06/07 09:09:13;;;;;;;19.30;17.20;;;20.20;99.90;;;;;;5105343;28;20452;-88
2021/06/07 09:11:50;;;;;;;26.23;23.60;;;20.20;99.90;;;;;;5099478;28;20450;-88
2021/06/07 09:14:22;;;;;;;23.17;20.87;;;20.10;99.90;;;;;;5106571;28;20480;-87
2021/06/07 09:16:49;;;;;;;21.23;17.93;;;20.10;99.90;;;;;;5099104;28;20486;-87
2021/06/07 09:19:26;;;;;;;19.07;16.70;;;20.00;99.90;;;;;;5095657;28;21051;-88
2021/06/07 09:21:55;;;;;;;16.80;15.10;;;20.00;99.90;;;;;;5095091;28;20495;-88
2021/06/07 09:24:24;;;;;;;19.20;17.30;;;20.00;99.90;;;;;;5095484;28;20500;-88
2021/06/07 09:26:53;;;;;;;19.97;16.70;;;20.00;99.90;;;;;;5096412;28;20888;-88
2021/06/07 09:29:38;;;;;;;19.77;17.67;;;19.90;99.90;;;;;;5098176;28;20519;-88
2021/06/07 09:32:05;;;;;;;20.40;18.30;;;19.90;99.90;;;;;;5098494;28;20445;-88
2021/06/07 09:34:34;;;;;;;20.50;16.90;;;19.90;99.90;;;;;;5106970;28;20473;-87
2021/06/07 09:37:06;;;;;;;16.93;15.37;;;19.90;99.90;;;;;;5101883;28;20480;-87
2021/06/07 09:39:33;;;;;;;17.87;16.10;;;20.00;99.90;;;;;;5116480;28;20449;-87
2021/06/07 09:42:03;;;;;;;18.80;16.80;;;20.00;99.90;;;;;;5106031;28;20467;-88
2021/06/07 09:44:34;;;;;;;20.90;17.47;;;20.10;99.90;;;;;;5096639;28;20511;-87
2021/06/07 09:47:13;;;;;;;21.60;16.73;;;20.10;99.90;;;;;;5096651;28;20474;-88
2021/06/07 09:49:43;;;;;;;19.03;17.07;;;20.10;99.90;;;;;;5110293;28;20447;-87
2021/06/07 09:52:13;;;;;;;19.03;17.03;;;20.20;99.90;;;;;;5108135;28;20445;-87
2021/06/07 09:54:40;;;;;;;17.30;15.60;;;20.20;99.90;;;;;;5113917;28;20523;-86
2021/06/07 09:57:08;;;;;;;20.43;18.23;;;20.30;99.90;;;;;;5130849;22;20483;-86
2021/06/07 09:59:36;;;;;;;19.00;17.00;;;20.30;99.90;;;;;;5092011;28;20445;-86
2021/06/07 10:02:15;;;;;;;19.73;17.70;;;20.30;99.90;;;;;;5095515;28;20599;-87
2021/06/07 10:04:48;;;;;;;19.07;17.07;;;20.30;99.90;;;;;;5095928;28;20450;-86
2021/06/07 10:07:15;;;;;;;19.23;16.57;;;20.30;99.90;;;;;;5098858;28;21129;-86
2021/06/07 10:10:13;;;;;;;19.07;17.20;;;20.40;99.90;;;;;;5116152;28;20445;-86
2021/06/07 10:12:42;;;;;;;24.37;18.00;;;20.50;99.90;;;;;;5116521;28;20456;-86
2021/06/07 10:15:10;;;;;;;19.23;17.37;;;20.70;99.90;;;;;;5125132;28;21035;-86
2021/06/07 10:17:37;;;;;;;20.10;17.30;;;20.70;99.90;;;;;;5118275;28;20575;-86
2021/06/07 10:22:50;;;;;;;18.00;16.30;;;20.90;99.90;;;;;;5118382;28;20444;-87
2021/06/07 10:25:16;;;;;;;19.43;17.57;;;21.00;99.90;;;;;;5118127;28;20960;-86
2021/06/07 10:27:43;;;;;;;20.20;17.77;;;21.00;99.90;;;;;;5102762;28;20789;-87
2021/06/07 10:30:18;;;;;;;19.40;17.50;;;20.90;99.90;;;;;;5117526;28;20441;-87
2021/06/07 10:32:45;;;;;;;21.17;19.07;;;20.90;99.90;;;;;;5117065;28;20451;-87
2021/06/07 10:35:12;;;;;;;18.87;16.87;;;20.80;99.90;;;;;;5120430;27;20492;-87
2021/06/07 10:38:04;;;;;;;19.53;17.63;;;20.80;99.90;;;;;;5114636;28;20522;-87
2021/06/07 10:40:31;;;;;;;18.37;16.50;;;20.80;99.90;;;;;;5115279;28;20456;-87
2021/06/07 10:43:00;;;;;;;20.27;18.37;;;20.90;99.90;;;;;;5114589;28;20475;-87
2021/06/07 10:45:29;;;;;;;21.50;19.50;;;21.00;99.90;;;;;;5125275;28;20421;-86
2021/06/07 10:47:56;;;;;;;22.43;20.03;;;21.10;99.90;;;;;;5118154;28;20456;-87
2021/06/07 10:50:24;;;;;;;21.30;19.17;;;21.10;99.90;;;;;;5116533;28;20429;-87
2021/06/07 10:52:54;;;;;;;23.20;20.93;;;21.10;99.90;;;;;;5117093;28;20452;-87
2021/06/07 10:55:25;;;;;;;22.23;20.03;;;21.00;99.90;;;;;;5127385;27;20546;-86
2021/06/07 10:57:54;;;;;;;20.23;18.33;;;21.10;99.90;;;;;;5125648;28;20475;-87
2021/06/07 11:00:38;;;;;;;21.03;19.00;;;21.10;99.90;;;;;;5133317;28;20548;-88
2021/06/07 11:03:16;;;;;;;23.13;20.80;;;21.10;99.90;;;;;;5121960;28;20422;-85
2021/06/07 11:05:44;;;;;;;25.10;22.57;;;21.10;99.90;;;;;;5127763;28;20457;-86
2021/06/07 11:08:13;;;;;;;21.23;19.10;;;21.10;99.90;;;;;;5122172;28;20448;-87
2021/06/07 11:10:40;;;;;;;22.43;20.33;;;21.10;99.90;;;;;;5121677;28;20495;-87
2021/06/07 11:13:08;;;;;;;22.43;20.10;;;21.20;99.90;;;;;;5130905;28;20461;-87
2021/06/07 11:15:42;;;;;;;23.87;21.37;;;21.20;99.90;;;;;;5117174;28;20492;-87
2021/06/07 11:18:28;;;;;;;21.40;19.10;;;21.30;99.90;;;;;;5115110;28;20477;-87
2021/06/07 11:20:57;;;;;;;20.00;17.90;;;21.20;99.90;;;;;;5122187;28;20437;-87
2021/06/07 11:23:32;;;;;;;22.23;20.03;;;21.20;99.90;;;;;;5105376;28;20448;-87
2021/06/07 11:25:59;;;;;;;21.70;19.63;;;21.10;99.90;;;;;;5095069;28;20452;-87
2021/06/07 11:28:36;;;;;;;22.57;20.27;;;21.00;99.90;;;;;;5094606;28;20466;-86
2021/06/07 11:31:07;;;;;;;23.17;20.80;;;21.00;99.90;;;;;;5093947;28;20452;-86
2021/06/07 11:33:50;;;;;;;23.00;20.80;;;21.00;99.90;;;;;;5105407;28;21171;-83
2021/06/07 11:36:46;;;;;;;22.80;20.50;;;20.90;99.90;;;;;;5121080;28;20481;-83
2021/06/07 11:39:14;;;;;;;20.13;18.23;;;20.90;99.90;;;;;;5137055;28;20474;-81
2021/06/07 11:41:43;;;;;;;21.53;19.63;;;20.80;99.90;;;;;;5137695;28;20457;-81
2021/06/07 11:44:10;;;;;;;21.60;19.40;;;20.80;99.90;;;;;;5137349;28;20507;-79
2021/06/07 11:46:57;;;;;;;21.53;19.47;;;20.70;99.90;;;;;;5134737;28;20446;-81
2021/06/07 11:49:24;;;;;;;23.20;20.70;;;20.70;99.90;;;;;;5124341;28;20475;-81
2021/06/07 11:52:06;;;;;;;23.00;20.80;;;20.80;99.90;;;;;;5126286;27;20442;-79
2021/06/07 11:55:14;;;;;;;22.23;19.83;;;20.70;99.90;;;;;;5133178;28;20495;-78
2021/06/07 11:57:40;;;;;;;21.77;19.50;;;20.90;99.90;;;;;;5135114;28;20486;-79
2021/06/07 12:00:07;;;;;;;19.50;17.50;;;21.30;99.90;;;;;;5131823;28;20438;-80
2021/06/07 12:02:35;;;;;;;20.37;18.47;;;21.60;99.90;;;;;;5125438;28;20437;-81
2021/06/07 12:05:06;;;;;;;20.30;18.30;;;21.90;99.90;;;;;;5125945;28;20471;-81
2021/06/07 12:07:34;;;;;;;22.53;20.23;;;22.00;99.90;;;;;;5132116;28;20478;-81
2021/06/07 12:10:01;;;;;;;22.27;19.97;;;22.10;99.90;;;;;;5128965;28;20847;-81
2021/06/07 12:12:28;;;;;;;24.57;22.10;;;22.20;99.90;;;;;;5112506;28;20424;-82
2021/06/07 12:14:54;;;;;;;23.93;21.63;;;22.20;99.90;;;;;;5106537;28;20506;-84
2021/06/07 12:17:22;;;;;;;24.90;22.50;;;22.10;99.90;;;;;;5107553;28;20467;-83
2021/06/07 12:19:56;;;;;;;26.50;23.93;;;21.90;99.90;;;;;;5105664;28;20446;-83
2021/06/07 12:22:30;;;;;;;25.70;23.30;;;21.80;99.90;;;;;;5106229;28;20540;-83
2021/06/07 12:25:00;;;;;;;25.80;23.20;;;21.80;99.90;;;;;;5106557;28;20442;-82
2021/06/07 12:30:16;;;;;;;25.43;22.93;;;22.10;99.90;;;;;;5106433;28;20440;-83
2021/06/07 12:32:43;;;;;;;25.70;23.40;;;22.20;99.90;;;;;;5105211;28;20443;-84
2021/06/07 12:35:13;;;;;;;26.23;23.87;;;22.50;99.90;;;;;;5104226;28;20508;-84
2021/06/07 12:37:43;;;;;;;24.80;22.20;;;22.90;99.90;;;;;;5111577;28;20485;-82
2021/06/07 12:40:16;;;;;;;24.40;22.20;;;23.40;99.90;;;;;;5117634;28;20441;-84
2021/06/07 12:42:43;;;;;;;25.33;22.90;;;23.60;99.90;;;;;;5111813;28;20441;-83
2021/06/07 12:45:12;;;;;;;25.27;22.97;;;23.90;99.90;;;;;;5114396;28;20442;-84
2021/06/07 12:47:38;;;;;;;23.17;21.03;;;24.50;99.90;;;;;;5104703;28;20461;-82
2021/06/07 12:50:13;;;;;;;22.87;20.67;;;25.40;99.90;;;;;;5106611;28;20815;-83
2021/06/07 12:52:40;;;;;;;27.43;24.90;;;25.60;99.90;;;;;;5106727;28;20817;-83
2021/06/07 12:55:08;;;;;;;26.87;24.57;;;25.10;99.90;;;;;;5105726;28;20489;-83
2021/06/07 12:57:35;;;;;;;24.97;22.67;;;24.50;99.90;;;;;;5104510;28;20899;-83
2021/06/07 13:00:27;;;;;;;22.30;20.20;;;24.00;99.90;;;;;;5105064;28;20434;-83
2021/06/07 13:02:53;;;;;;;19.03;17.03;;;23.70;99.90;;;;;;5105935;28;20435;-83
2021/06/07 13:05:33;;;;;;;20.80;18.80;;;23.40;99.90;;;;;;5105230;28;20438;-84
2021/06/07 13:08:13;;;;;;;18.67;16.97;;;23.20;99.90;;;;;;5105052;28;21000;-84
2021/06/07 13:10:42;;;;;;;19.20;17.50;;;23.40;99.90;;;;;;5106417;28;20445;-83
2021/06/07 13:13:16;;;;;;;17.63;16.13;;;23.60;99.90;;;;;;5125295;28;20933;-84
2021/06/07 13:15:42;;;;;;;18.57;16.87;;;23.70;99.90;;;;;;5125636;28;20484;-83
2021/06/07 13:18:08;;;;;;;17.40;16.00;;;23.90;99.90;;;;;;5128161;28;20461;-83
2021/06/07 13:20:36;;;;;;;16.83;15.23;;;24.80;99.90;;;;;;5132471;28;20434;-83
2021/06/07 13:23:02;;;;;;;15.40;14.00;;;26.00;99.90;;;;;;5128591;28;20441;-82
2021/06/07 13:25:30;;;;;;;16.53;14.93;;;26.10;99.90;;;;;;5126986;28;20433;-85
2021/06/07 13:28:20;;;;;;;19.83;18.10;;;26.00;99.90;;;;;;5130539;28;20490;-84
2021/06/07 13:31:04;;;;;;;16.93;15.43;;;25.50;99.90;;;;;;5125901;28;20446;-84
2021/06/07 13:33:30;;;;;;;17.63;16.17;;;25.30;99.90;;;;;;5122530;28;20521;-83
2021/06/07 13:36:03;;;;;;;15.83;14.43;;;26.20;99.90;;;;;;5123048;28;20531;-84
2021/06/07 13:38:34;;;;;;;17.27;15.73;;;27.20;99.00;;;;;;5123627;28;20951;-83
2021/06/07 13:41:09;;;;;;;19.13;17.33;;;27.40;98.20;;;;;;5124532;28;20450;-84
2021/06/07 13:43:35;;;;;;;19.17;17.50;;;27.30;97.40;;;;;;5124362;28;20440;-85
2021/06/07 13:46:03;;;;;;;20.47;18.67;;;26.50;98.00;;;;;;5125058;28;20449;-84
2021/06/07 13:48:35;;;;;;;21.40;19.60;;;25.90;99.30;;;;;;5127939;28;20468;-83
2021/06/07 13:51:06;;;;;;;19.90;17.90;;;25.40;99.90;;;;;;5129522;28;20465;-84
2021/06/07 13:53:35;;;;;;;21.17;19.13;;;24.90;99.90;;;;;;5126977;28;20454;-84
2021/06/07 13:56:08;;;;;;;20.50;18.63;;;24.60;99.90;;;;;;5126747;28;20514;-84
2021/06/07 13:58:46;;;;;;;19.30;17.57;;;24.30;99.90;;;;;;5126004;28;20485;-84
2021/06/07 14:01:15;;;;;;;18.60;16.80;;;24.10;99.90;;;;;;5129269;28;20449;-83
2021/06/07 14:03:42;;;;;;;19.87;17.83;;;24.20;99.90;;;;;;5128575;28;20460;-85
2021/06/07 14:06:13;;;;;;;18.93;17.33;;;24.20;99.90;;;;;;5126878;28;20945;-84
2021/06/07 14:08:41;;;;;;;20.67;18.83;;;24.20;99.90;;;;;;5126903;28;20477;-84